sensor_id;sensor_type;location;lat;lon;timestamp;P1;durP1;ratioP1;P2;durP2;ratioP2
3993;SDS011;2011;48.238;13.948;2023-07-24T00:00:22;15.67;;;8.20;;
3993;SDS011;2011;48.238;13.948;2023-07-24T00:02:50;22.30;;;8.70;;
3993;SDS011;2011;48.238;13.948;2023-07-24T00:05:18;19.47;;;9.80;;
3993;SDS011;2011;48.238;13.948;2023-07-24T00:07:47;23.03;;;8.87;;
3993;SDS011;2011;48.238;13.948;2023-07-24T00:10:16;15.97;;;8.40;;
3993;SDS011;2011;48.238;13.948;2023-07-24T00:12:43;20.30;;;9.83;;
3993;SDS011;2011;48.238;13.948;2023-07-24T00:15:10;16.00;;;8.00;;
3993;SDS011;2011;48.238;13.948;2023-07-24T00:17:38;24.27;;;8.00;;
3993;SDS011;2011;48.238;13.948;2023-07-24T00:20:06;14.50;;;8.23;;
3993;SDS011;2011;48.238;13.948;2023-07-24T00:22:33;18.40;;;7.03;;
3993;SDS011;2011;48.238;13.948;2023-07-24T00:25:02;20.33;;;8.67;;
3993;SDS011;2011;48.238;13.948;2023-07-24T00:27:32;18.20;;;7.90;;
3993;SDS011;2011;48.238;13.948;2023-07-24T00:29:59;15.60;;;7.03;;
3993;SDS011;2011;48.238;13.948;2023-07-24T00:32:27;14.07;;;6.87;;
3993;SDS011;2011;48.238;13.948;2023-07-24T00:34:54;15.70;;;7.37;;
3993;SDS011;2011;48.238;13.948;2023-07-24T00:37:21;15.23;;;7.00;;
3993;SDS011;2011;48.238;13.948;2023-07-24T00:39:49;16.30;;;6.97;;
3993;SDS011;2011;48.238;13.948;2023-07-24T00:42:17;12.77;;;6.90;;
3993;SDS011;2011;48.238;13.948;2023-07-24T00:44:45;14.63;;;7.50;;
3993;SDS011;2011;48.238;13.948;2023-07-24T00:47:12;16.07;;;6.33;;
3993;SDS011;2011;48.238;13.948;2023-07-24T00:49:39;15.00;;;7.13;;
3993;SDS011;2011;48.238;13.948;2023-07-24T00:52:07;17.57;;;7.47;;
3993;SDS011;2011;48.238;13.948;2023-07-24T00:54:35;13.73;;;7.90;;
3993;SDS011;2011;48.238;13.948;2023-07-24T00:57:03;14.53;;;7.97;;
3993;SDS011;2011;48.238;13.948;2023-07-24T00:59:33;15.77;;;7.40;;
3993;SDS011;2011;48.238;13.948;2023-07-24T01:02:01;15.97;;;8.70;;
3993;SDS011;2011;48.238;13.948;2023-07-24T01:04:28;13.70;;;7.10;;
3993;SDS011;2011;48.238;13.948;2023-07-24T01:06:56;16.63;;;8.23;;
3993;SDS011;2011;48.238;13.948;2023-07-24T01:09:24;23.03;;;8.03;;
3993;SDS011;2011;48.238;13.948;2023-07-24T01:11:54;20.87;;;8.63;;
3993;SDS011;2011;48.238;13.948;2023-07-24T01:14:27;28.53;;;9.13;;
3993;SDS011;2011;48.238;13.948;2023-07-24T01:17:01;14.50;;;8.17;;
3993;SDS011;2011;48.238;13.948;2023-07-24T01:19:35;23.43;;;8.17;;
3993;SDS011;2011;48.238;13.948;2023-07-24T01:22:09;19.00;;;8.93;;
3993;SDS011;2011;48.238;13.948;2023-07-24T01:24:48;18.50;;;8.83;;
3993;SDS011;2011;48.238;13.948;2023-07-24T01:27:28;24.47;;;7.83;;
3993;SDS011;2011;48.238;13.948;2023-07-24T01:29:55;16.80;;;8.83;;
3993;SDS011;2011;48.238;13.948;2023-07-24T01:32:22;18.00;;;8.97;;
3993;SDS011;2011;48.238;13.948;2023-07-24T01:34:50;21.73;;;8.30;;
3993;SDS011;2011;48.238;13.948;2023-07-24T01:37:19;16.83;;;8.97;;
3993;SDS011;2011;48.238;13.948;2023-07-24T01:39:48;18.60;;;9.23;;
3993;SDS011;2011;48.238;13.948;2023-07-24T01:42:16;15.90;;;8.20;;
3993;SDS011;2011;48.238;13.948;2023-07-24T01:44:46;14.23;;;8.70;;
3993;SDS011;2011;48.238;13.948;2023-07-24T01:47:18;13.80;;;7.60;;
3993;SDS011;2011;48.238;13.948;2023-07-24T01:49:45;20.47;;;8.27;;
3993;SDS011;2011;48.238;13.948;2023-07-24T01:52:13;11.73;;;6.70;;
3993;SDS011;2011;48.238;13.948;2023-07-24T01:54:40;14.27;;;7.23;;
3993;SDS011;2011;48.238;13.948;2023-07-24T01:57:07;13.73;;;7.27;;
3993;SDS011;2011;48.238;13.948;2023-07-24T01:59:35;28.10;;;8.83;;
3993;SDS011;2011;48.238;13.948;2023-07-24T02:02:03;22.87;;;8.77;;
3993;SDS011;2011;48.238;13.948;2023-07-24T02:04:31;13.33;;;7.30;;
3993;SDS011;2011;48.238;13.948;2023-07-24T02:06:58;12.57;;;7.07;;
3993;SDS011;2011;48.238;13.948;2023-07-24T02:09:25;15.10;;;7.47;;
3993;SDS011;2011;48.238;13.948;2023-07-24T02:11:53;19.07;;;8.03;;
3993;SDS011;2011;48.238;13.948;2023-07-24T02:14:20;12.40;;;8.03;;
3993;SDS011;2011;48.238;13.948;2023-07-24T02:16:47;18.70;;;7.77;;
3993;SDS011;2011;48.238;13.948;2023-07-24T02:19:16;13.70;;;7.73;;
3993;SDS011;2011;48.238;13.948;2023-07-24T02:21:43;13.57;;;8.30;;
3993;SDS011;2011;48.238;13.948;2023-07-24T02:24:11;13.70;;;7.43;;
3993;SDS011;2011;48.238;13.948;2023-07-24T02:26:38;15.43;;;7.60;;
3993;SDS011;2011;48.238;13.948;2023-07-24T02:29:05;19.73;;;9.07;;
3993;SDS011;2011;48.238;13.948;2023-07-24T02:31:33;16.50;;;9.03;;
3993;SDS011;2011;48.238;13.948;2023-07-24T02:34:00;16.93;;;7.77;;
3993;SDS011;2011;48.238;13.948;2023-07-24T02:36:29;19.70;;;10.10;;
3993;SDS011;2011;48.238;13.948;2023-07-24T02:38:56;15.73;;;8.33;;
3993;SDS011;2011;48.238;13.948;2023-07-24T02:41:23;15.40;;;8.80;;
3993;SDS011;2011;48.238;13.948;2023-07-24T02:43:51;16.20;;;8.90;;
3993;SDS011;2011;48.238;13.948;2023-07-24T02:46:18;22.83;;;10.27;;
3993;SDS011;2011;48.238;13.948;2023-07-24T02:48:45;17.07;;;8.53;;
3993;SDS011;2011;48.238;13.948;2023-07-24T02:51:12;23.90;;;9.07;;
3993;SDS011;2011;48.238;13.948;2023-07-24T02:53:41;22.70;;;8.57;;
3993;SDS011;2011;48.238;13.948;2023-07-24T02:56:09;18.10;;;9.30;;
3993;SDS011;2011;48.238;13.948;2023-07-24T02:58:36;16.53;;;8.70;;
3993;SDS011;2011;48.238;13.948;2023-07-24T03:01:04;23.53;;;9.60;;
3993;SDS011;2011;48.238;13.948;2023-07-24T03:03:40;21.10;;;8.10;;
3993;SDS011;2011;48.238;13.948;2023-07-24T03:06:32;16.83;;;8.67;;
3993;SDS011;2011;48.238;13.948;2023-07-24T03:09:02;19.50;;;8.57;;
3993;SDS011;2011;48.238;13.948;2023-07-24T03:11:30;20.10;;;8.70;;
3993;SDS011;2011;48.238;13.948;2023-07-24T03:13:57;17.13;;;9.20;;
3993;SDS011;2011;48.238;13.948;2023-07-24T03:16:24;23.00;;;9.47;;
3993;SDS011;2011;48.238;13.948;2023-07-24T03:18:52;19.60;;;9.17;;
3993;SDS011;2011;48.238;13.948;2023-07-24T03:21:19;22.43;;;9.00;;
3993;SDS011;2011;48.238;13.948;2023-07-24T03:23:47;16.03;;;9.30;;
3993;SDS011;2011;48.238;13.948;2023-07-24T03:26:15;15.60;;;8.70;;
3993;SDS011;2011;48.238;13.948;2023-07-24T03:28:43;18.33;;;8.47;;
3993;SDS011;2011;48.238;13.948;2023-07-24T03:31:10;16.13;;;8.10;;
3993;SDS011;2011;48.238;13.948;2023-07-24T03:33:37;15.27;;;8.20;;
3993;SDS011;2011;48.238;13.948;2023-07-24T03:36:05;17.20;;;8.07;;
3993;SDS011;2011;48.238;13.948;2023-07-24T03:38:32;16.17;;;8.00;;
3993;SDS011;2011;48.238;13.948;2023-07-24T03:40:59;15.43;;;8.07;;
3993;SDS011;2011;48.238;13.948;2023-07-24T03:43:28;17.50;;;9.33;;
3993;SDS011;2011;48.238;13.948;2023-07-24T03:45:56;18.67;;;8.70;;
3993;SDS011;2011;48.238;13.948;2023-07-24T03:48:23;14.33;;;8.00;;
3993;SDS011;2011;48.238;13.948;2023-07-24T03:50:57;15.37;;;8.33;;
3993;SDS011;2011;48.238;13.948;2023-07-24T03:53:25;16.27;;;8.80;;
3993;SDS011;2011;48.238;13.948;2023-07-24T03:55:52;16.80;;;9.40;;
3993;SDS011;2011;48.238;13.948;2023-07-24T03:58:20;18.20;;;8.60;;
3993;SDS011;2011;48.238;13.948;2023-07-24T04:00:49;16.37;;;8.40;;
3993;SDS011;2011;48.238;13.948;2023-07-24T04:03:16;16.03;;;9.20;;
3993;SDS011;2011;48.238;13.948;2023-07-24T04:05:44;17.50;;;9.37;;
3993;SDS011;2011;48.238;13.948;2023-07-24T04:08:11;29.03;;;9.60;;
3993;SDS011;2011;48.238;13.948;2023-07-24T04:10:38;35.00;;;8.90;;
3993;SDS011;2011;48.238;13.948;2023-07-24T04:13:06;15.27;;;9.17;;
3993;SDS011;2011;48.238;13.948;2023-07-24T04:15:33;15.93;;;8.50;;
3993;SDS011;2011;48.238;13.948;2023-07-24T04:18:02;15.07;;;8.10;;
3993;SDS011;2011;48.238;13.948;2023-07-24T04:20:29;14.40;;;8.47;;
3993;SDS011;2011;48.238;13.948;2023-07-24T04:22:56;19.73;;;9.00;;
3993;SDS011;2011;48.238;13.948;2023-07-24T04:25:24;20.93;;;9.13;;
3993;SDS011;2011;48.238;13.948;2023-07-24T04:27:51;19.23;;;9.37;;
3993;SDS011;2011;48.238;13.948;2023-07-24T04:30:18;19.80;;;8.10;;
3993;SDS011;2011;48.238;13.948;2023-07-24T04:32:45;20.70;;;8.70;;
3993;SDS011;2011;48.238;13.948;2023-07-24T04:35:14;18.10;;;9.50;;
3993;SDS011;2011;48.238;13.948;2023-07-24T04:37:42;28.83;;;9.07;;
3993;SDS011;2011;48.238;13.948;2023-07-24T04:40:09;17.23;;;9.03;;
3993;SDS011;2011;48.238;13.948;2023-07-24T04:42:37;20.23;;;9.10;;
3993;SDS011;2011;48.238;13.948;2023-07-24T04:45:05;17.27;;;8.67;;
3993;SDS011;2011;48.238;13.948;2023-07-24T04:47:40;18.40;;;8.13;;
3993;SDS011;2011;48.238;13.948;2023-07-24T04:50:07;17.53;;;9.40;;
3993;SDS011;2011;48.238;13.948;2023-07-24T04:52:36;22.93;;;9.30;;
3993;SDS011;2011;48.238;13.948;2023-07-24T04:55:04;14.90;;;8.57;;
3993;SDS011;2011;48.238;13.948;2023-07-24T04:57:32;16.17;;;9.20;;
3993;SDS011;2011;48.238;13.948;2023-07-24T04:59:59;19.73;;;8.07;;
3993;SDS011;2011;48.238;13.948;2023-07-24T05:02:26;21.03;;;9.10;;
3993;SDS011;2011;48.238;13.948;2023-07-24T05:04:54;14.87;;;9.23;;
3993;SDS011;2011;48.238;13.948;2023-07-24T05:07:21;22.20;;;9.03;;
3993;SDS011;2011;48.238;13.948;2023-07-24T05:09:50;20.40;;;9.03;;
3993;SDS011;2011;48.238;13.948;2023-07-24T05:12:17;17.43;;;8.80;;
3993;SDS011;2011;48.238;13.948;2023-07-24T05:14:44;16.93;;;8.80;;
3993;SDS011;2011;48.238;13.948;2023-07-24T05:17:11;15.00;;;8.30;;
3993;SDS011;2011;48.238;13.948;2023-07-24T05:19:39;17.47;;;9.70;;
3993;SDS011;2011;48.238;13.948;2023-07-24T05:22:06;16.77;;;8.63;;
3993;SDS011;2011;48.238;13.948;2023-07-24T05:24:35;18.33;;;9.27;;
3993;SDS011;2011;48.238;13.948;2023-07-24T05:27:04;19.63;;;8.90;;
3993;SDS011;2011;48.238;13.948;2023-07-24T05:29:32;20.67;;;8.67;;
3993;SDS011;2011;48.238;13.948;2023-07-24T05:31:59;22.80;;;10.03;;
3993;SDS011;2011;48.238;13.948;2023-07-24T05:34:27;18.07;;;10.23;;
3993;SDS011;2011;48.238;13.948;2023-07-24T05:36:55;22.23;;;10.23;;
3993;SDS011;2011;48.238;13.948;2023-07-24T05:39:22;23.60;;;8.77;;
3993;SDS011;2011;48.238;13.948;2023-07-24T05:41:49;15.10;;;9.30;;
3993;SDS011;2011;48.238;13.948;2023-07-24T05:44:18;18.10;;;10.60;;
3993;SDS011;2011;48.238;13.948;2023-07-24T05:46:45;20.40;;;8.90;;
3993;SDS011;2011;48.238;13.948;2023-07-24T05:49:13;22.60;;;9.10;;
3993;SDS011;2011;48.238;13.948;2023-07-24T05:51:41;17.03;;;8.10;;
3993;SDS011;2011;48.238;13.948;2023-07-24T05:54:08;16.60;;;9.40;;
3993;SDS011;2011;48.238;13.948;2023-07-24T05:56:35;22.40;;;10.00;;
3993;SDS011;2011;48.238;13.948;2023-07-24T05:59:02;17.73;;;8.70;;
3993;SDS011;2011;48.238;13.948;2023-07-24T06:01:31;20.63;;;8.70;;
3993;SDS011;2011;48.238;13.948;2023-07-24T06:03:58;16.27;;;8.80;;
3993;SDS011;2011;48.238;13.948;2023-07-24T06:06:26;14.50;;;8.50;;
3993;SDS011;2011;48.238;13.948;2023-07-24T06:08:53;19.13;;;8.73;;
3993;SDS011;2011;48.238;13.948;2023-07-24T06:11:20;23.23;;;9.60;;
3993;SDS011;2011;48.238;13.948;2023-07-24T06:13:48;26.63;;;9.53;;
3993;SDS011;2011;48.238;13.948;2023-07-24T06:16:15;31.90;;;9.43;;
3993;SDS011;2011;48.238;13.948;2023-07-24T06:18:44;16.20;;;8.77;;
3993;SDS011;2011;48.238;13.948;2023-07-24T06:21:11;16.63;;;9.30;;
3993;SDS011;2011;48.238;13.948;2023-07-24T06:23:39;17.53;;;8.47;;
3993;SDS011;2011;48.238;13.948;2023-07-24T06:26:06;14.87;;;8.90;;
3993;SDS011;2011;48.238;13.948;2023-07-24T06:28:34;37.20;;;10.73;;
3993;SDS011;2011;48.238;13.948;2023-07-24T06:31:01;23.07;;;9.47;;
3993;SDS011;2011;48.238;13.948;2023-07-24T06:33:28;17.93;;;9.57;;
3993;SDS011;2011;48.238;13.948;2023-07-24T06:35:57;19.20;;;9.77;;
3993;SDS011;2011;48.238;13.948;2023-07-24T06:38:24;24.00;;;10.13;;
3993;SDS011;2011;48.238;13.948;2023-07-24T06:40:52;18.10;;;9.17;;
3993;SDS011;2011;48.238;13.948;2023-07-24T06:43:19;18.73;;;9.30;;
3993;SDS011;2011;48.238;13.948;2023-07-24T06:45:46;15.93;;;8.90;;
3993;SDS011;2011;48.238;13.948;2023-07-24T06:48:13;15.70;;;8.80;;
3993;SDS011;2011;48.238;13.948;2023-07-24T06:50:41;18.60;;;8.30;;
3993;SDS011;2011;48.238;13.948;2023-07-24T06:53:09;16.20;;;8.40;;
3993;SDS011;2011;48.238;13.948;2023-07-24T06:55:37;17.77;;;8.87;;
3993;SDS011;2011;48.238;13.948;2023-07-24T06:58:04;20.10;;;9.90;;
3993;SDS011;2011;48.238;13.948;2023-07-24T07:00:31;26.73;;;9.47;;
3993;SDS011;2011;48.238;13.948;2023-07-24T07:02:59;17.17;;;9.27;;
3993;SDS011;2011;48.238;13.948;2023-07-24T07:05:26;20.90;;;9.27;;
3993;SDS011;2011;48.238;13.948;2023-07-24T07:07:53;22.60;;;8.60;;
3993;SDS011;2011;48.238;13.948;2023-07-24T07:10:22;18.43;;;8.90;;
3993;SDS011;2011;48.238;13.948;2023-07-24T07:12:51;23.30;;;11.20;;
3993;SDS011;2011;48.238;13.948;2023-07-24T07:15:18;22.07;;;11.73;;
3993;SDS011;2011;48.238;13.948;2023-07-24T07:17:45;22.43;;;9.33;;
3993;SDS011;2011;48.238;13.948;2023-07-24T07:20:13;27.30;;;12.50;;
3993;SDS011;2011;48.238;13.948;2023-07-24T07:22:40;28.70;;;11.30;;
3993;SDS011;2011;48.238;13.948;2023-07-24T07:25:07;55.17;;;17.93;;
3993;SDS011;2011;48.238;13.948;2023-07-24T07:27:37;19.53;;;10.93;;
3993;SDS011;2011;48.238;13.948;2023-07-24T07:30:04;21.83;;;10.20;;
3993;SDS011;2011;48.238;13.948;2023-07-24T07:32:32;16.53;;;9.63;;
3993;SDS011;2011;48.238;13.948;2023-07-24T07:35:00;17.73;;;9.03;;
3993;SDS011;2011;48.238;13.948;2023-07-24T07:37:28;16.60;;;9.20;;
3993;SDS011;2011;48.238;13.948;2023-07-24T07:39:55;20.90;;;9.80;;
3993;SDS011;2011;48.238;13.948;2023-07-24T07:42:23;23.77;;;9.80;;
3993;SDS011;2011;48.238;13.948;2023-07-24T07:44:52;26.97;;;9.90;;
3993;SDS011;2011;48.238;13.948;2023-07-24T07:47:19;34.73;;;9.00;;
3993;SDS011;2011;48.238;13.948;2023-07-24T07:49:46;23.20;;;8.60;;
3993;SDS011;2011;48.238;13.948;2023-07-24T07:52:14;22.23;;;8.93;;
3993;SDS011;2011;48.238;13.948;2023-07-24T07:54:45;25.67;;;9.67;;
3993;SDS011;2011;48.238;13.948;2023-07-24T07:57:13;22.50;;;8.83;;
3993;SDS011;2011;48.238;13.948;2023-07-24T07:59:40;16.47;;;9.13;;
3993;SDS011;2011;48.238;13.948;2023-07-24T08:02:09;193.20;;;14.03;;
3993;SDS011;2011;48.238;13.948;2023-07-24T08:04:36;17.37;;;8.70;;
3993;SDS011;2011;48.238;13.948;2023-07-24T08:07:04;19.20;;;7.80;;
3993;SDS011;2011;48.238;13.948;2023-07-24T08:09:31;22.40;;;8.60;;
3993;SDS011;2011;48.238;13.948;2023-07-24T08:12:01;29.13;;;10.67;;
3993;SDS011;2011;48.238;13.948;2023-07-24T08:14:33;30.10;;;8.73;;
3993;SDS011;2011;48.238;13.948;2023-07-24T08:17:00;16.60;;;7.97;;
3993;SDS011;2011;48.238;13.948;2023-07-24T08:19:29;16.30;;;8.63;;
3993;SDS011;2011;48.238;13.948;2023-07-24T08:21:57;24.20;;;9.43;;
3993;SDS011;2011;48.238;13.948;2023-07-24T08:24:24;19.53;;;8.40;;
3993;SDS011;2011;48.238;13.948;2023-07-24T08:26:51;24.57;;;9.20;;
3993;SDS011;2011;48.238;13.948;2023-07-24T08:29:18;19.87;;;8.77;;
3993;SDS011;2011;48.238;13.948;2023-07-24T08:31:46;26.77;;;8.93;;
3993;SDS011;2011;48.238;13.948;2023-07-24T08:34:13;18.23;;;8.53;;
3993;SDS011;2011;48.238;13.948;2023-07-24T08:36:42;15.77;;;8.20;;
3993;SDS011;2011;48.238;13.948;2023-07-24T08:39:10;17.90;;;8.97;;
3993;SDS011;2011;48.238;13.948;2023-07-24T08:41:37;17.07;;;8.67;;
3993;SDS011;2011;48.238;13.948;2023-07-24T08:44:07;27.83;;;8.50;;
3993;SDS011;2011;48.238;13.948;2023-07-24T08:46:41;19.00;;;9.00;;
3993;SDS011;2011;48.238;13.948;2023-07-24T08:49:11;21.10;;;8.00;;
3993;SDS011;2011;48.238;13.948;2023-07-24T08:51:43;18.33;;;8.43;;
3993;SDS011;2011;48.238;13.948;2023-07-24T08:54:12;20.67;;;8.43;;
3993;SDS011;2011;48.238;13.948;2023-07-24T08:56:39;17.90;;;8.20;;
3993;SDS011;2011;48.238;13.948;2023-07-24T08:59:12;16.30;;;8.73;;
3993;SDS011;2011;48.238;13.948;2023-07-24T09:01:40;23.27;;;9.53;;
3993;SDS011;2011;48.238;13.948;2023-07-24T09:04:07;21.47;;;8.70;;
3993;SDS011;2011;48.238;13.948;2023-07-24T09:06:34;19.00;;;7.73;;
3993;SDS011;2011;48.238;13.948;2023-07-24T09:09:11;21.73;;;7.67;;
3993;SDS011;2011;48.238;13.948;2023-07-24T09:11:45;15.30;;;7.90;;
3993;SDS011;2011;48.238;13.948;2023-07-24T09:14:19;24.40;;;8.37;;
3993;SDS011;2011;48.238;13.948;2023-07-24T09:16:48;13.80;;;7.93;;
3993;SDS011;2011;48.238;13.948;2023-07-24T09:19:18;18.73;;;7.83;;
3993;SDS011;2011;48.238;13.948;2023-07-24T09:21:46;20.07;;;8.13;;
3993;SDS011;2011;48.238;13.948;2023-07-24T09:24:15;17.50;;;8.07;;
3993;SDS011;2011;48.238;13.948;2023-07-24T09:26:49;18.33;;;7.60;;
3993;SDS011;2011;48.238;13.948;2023-07-24T09:29:17;14.30;;;7.67;;
3993;SDS011;2011;48.238;13.948;2023-07-24T09:31:44;14.83;;;7.43;;
3993;SDS011;2011;48.238;13.948;2023-07-24T09:34:16;15.87;;;8.40;;
3993;SDS011;2011;48.238;13.948;2023-07-24T09:36:44;17.83;;;7.67;;
3993;SDS011;2011;48.238;13.948;2023-07-24T09:39:12;26.50;;;8.53;;
3993;SDS011;2011;48.238;13.948;2023-07-24T09:41:41;16.80;;;8.73;;
3993;SDS011;2011;48.238;13.948;2023-07-24T09:44:15;14.40;;;7.77;;
3993;SDS011;2011;48.238;13.948;2023-07-24T09:46:48;13.70;;;7.10;;
3993;SDS011;2011;48.238;13.948;2023-07-24T09:49:15;28.50;;;8.33;;
3993;SDS011;2011;48.238;13.948;2023-07-24T09:51:43;12.37;;;8.10;;
3993;SDS011;2011;48.238;13.948;2023-07-24T09:54:15;16.20;;;8.13;;
3993;SDS011;2011;48.238;13.948;2023-07-24T09:56:50;15.70;;;8.70;;
3993;SDS011;2011;48.238;13.948;2023-07-24T09:59:18;17.77;;;8.30;;
3993;SDS011;2011;48.238;13.948;2023-07-24T10:01:47;16.27;;;8.60;;
3993;SDS011;2011;48.238;13.948;2023-07-24T10:04:16;23.43;;;8.90;;
3993;SDS011;2011;48.238;13.948;2023-07-24T10:06:47;13.37;;;8.13;;
3993;SDS011;2011;48.238;13.948;2023-07-24T10:09:14;12.13;;;7.67;;
3993;SDS011;2011;48.238;13.948;2023-07-24T10:11:44;16.23;;;8.63;;
3993;SDS011;2011;48.238;13.948;2023-07-24T10:14:13;15.43;;;7.53;;
3993;SDS011;2011;48.238;13.948;2023-07-24T10:16:40;17.10;;;8.23;;
3993;SDS011;2011;48.238;13.948;2023-07-24T10:19:12;14.43;;;7.77;;
3993;SDS011;2011;48.238;13.948;2023-07-24T10:21:44;16.90;;;8.20;;
3993;SDS011;2011;48.238;13.948;2023-07-24T10:24:13;16.63;;;8.33;;
3993;SDS011;2011;48.238;13.948;2023-07-24T10:26:41;15.83;;;8.87;;
3993;SDS011;2011;48.238;13.948;2023-07-24T10:29:09;21.73;;;8.83;;
3993;SDS011;2011;48.238;13.948;2023-07-24T10:31:38;17.40;;;9.00;;
3993;SDS011;2011;48.238;13.948;2023-07-24T10:34:06;17.03;;;8.07;;
3993;SDS011;2011;48.238;13.948;2023-07-24T10:36:34;14.40;;;8.37;;
3993;SDS011;2011;48.238;13.948;2023-07-24T10:39:12;15.47;;;8.20;;
3993;SDS011;2011;48.238;13.948;2023-07-24T10:41:41;22.07;;;8.53;;
3993;SDS011;2011;48.238;13.948;2023-07-24T10:44:10;19.17;;;8.17;;
3993;SDS011;2011;48.238;13.948;2023-07-24T10:46:39;16.27;;;8.43;;
3993;SDS011;2011;48.238;13.948;2023-07-24T10:49:08;17.40;;;8.60;;
3993;SDS011;2011;48.238;13.948;2023-07-24T10:51:36;21.93;;;8.80;;
3993;SDS011;2011;48.238;13.948;2023-07-24T10:54:03;19.43;;;8.50;;
3993;SDS011;2011;48.238;13.948;2023-07-24T10:56:31;18.50;;;8.50;;
3993;SDS011;2011;48.238;13.948;2023-07-24T10:59:02;13.93;;;8.63;;
3993;SDS011;2011;48.238;13.948;2023-07-24T11:01:31;15.47;;;8.30;;
3993;SDS011;2011;48.238;13.948;2023-07-24T11:04:00;17.40;;;9.23;;
3993;SDS011;2011;48.238;13.948;2023-07-24T11:06:27;15.67;;;8.33;;
3993;SDS011;2011;48.238;13.948;2023-07-24T11:08:55;18.50;;;9.53;;
3993;SDS011;2011;48.238;13.948;2023-07-24T11:11:27;18.53;;;8.67;;
3993;SDS011;2011;48.238;13.948;2023-07-24T11:13:55;18.10;;;9.20;;
3993;SDS011;2011;48.238;13.948;2023-07-24T11:16:23;21.30;;;8.83;;
3993;SDS011;2011;48.238;13.948;2023-07-24T11:18:51;21.23;;;9.70;;
3993;SDS011;2011;48.238;13.948;2023-07-24T11:21:20;27.83;;;8.80;;
3993;SDS011;2011;48.238;13.948;2023-07-24T11:23:49;14.73;;;8.63;;
3993;SDS011;2011;48.238;13.948;2023-07-24T11:26:18;17.87;;;9.57;;
3993;SDS011;2011;48.238;13.948;2023-07-24T11:28:47;18.73;;;7.63;;
3993;SDS011;2011;48.238;13.948;2023-07-24T11:31:15;15.03;;;8.10;;
3993;SDS011;2011;48.238;13.948;2023-07-24T11:33:45;15.47;;;8.13;;
3993;SDS011;2011;48.238;13.948;2023-07-24T11:36:13;17.10;;;8.80;;
3993;SDS011;2011;48.238;13.948;2023-07-24T11:38:44;12.87;;;7.20;;
3993;SDS011;2011;48.238;13.948;2023-07-24T11:41:11;14.53;;;7.47;;
3993;SDS011;2011;48.238;13.948;2023-07-24T11:43:45;16.33;;;6.27;;
3993;SDS011;2011;48.238;13.948;2023-07-24T11:46:21;10.80;;;6.67;;
3993;SDS011;2011;48.238;13.948;2023-07-24T11:48:50;15.50;;;6.57;;
3993;SDS011;2011;48.238;13.948;2023-07-24T11:51:18;10.27;;;6.10;;
3993;SDS011;2011;48.238;13.948;2023-07-24T11:53:47;14.43;;;6.63;;
3993;SDS011;2011;48.238;13.948;2023-07-24T11:56:15;13.63;;;6.43;;
3993;SDS011;2011;48.238;13.948;2023-07-24T11:58:43;22.03;;;6.93;;
3993;SDS011;2011;48.238;13.948;2023-07-24T12:01:12;10.30;;;6.50;;
3993;SDS011;2011;48.238;13.948;2023-07-24T12:03:39;13.40;;;6.50;;
3993;SDS011;2011;48.238;13.948;2023-07-24T12:06:13;10.87;;;6.37;;
3993;SDS011;2011;48.238;13.948;2023-07-24T12:08:42;13.57;;;6.70;;
3993;SDS011;2011;48.238;13.948;2023-07-24T12:11:17;18.33;;;7.80;;
3993;SDS011;2011;48.238;13.948;2023-07-24T12:13:44;19.20;;;7.27;;
3993;SDS011;2011;48.238;13.948;2023-07-24T12:16:12;11.23;;;6.53;;
3993;SDS011;2011;48.238;13.948;2023-07-24T12:18:39;12.77;;;6.90;;
3993;SDS011;2011;48.238;13.948;2023-07-24T12:21:07;20.17;;;7.30;;
3993;SDS011;2011;48.238;13.948;2023-07-24T12:23:34;19.83;;;6.93;;
3993;SDS011;2011;48.238;13.948;2023-07-24T12:26:02;11.73;;;6.83;;
3993;SDS011;2011;48.238;13.948;2023-07-24T12:28:30;12.13;;;7.40;;
3993;SDS011;2011;48.238;13.948;2023-07-24T12:30:58;12.30;;;6.77;;
3993;SDS011;2011;48.238;13.948;2023-07-24T12:33:26;12.13;;;7.47;;
3993;SDS011;2011;48.238;13.948;2023-07-24T12:35:53;13.77;;;7.77;;
3993;SDS011;2011;48.238;13.948;2023-07-24T12:38:20;11.50;;;6.70;;
3993;SDS011;2011;48.238;13.948;2023-07-24T12:40:48;11.70;;;7.10;;
3993;SDS011;2011;48.238;13.948;2023-07-24T12:43:15;14.77;;;7.70;;
3993;SDS011;2011;48.238;13.948;2023-07-24T12:45:44;13.43;;;7.40;;
3993;SDS011;2011;48.238;13.948;2023-07-24T12:48:11;11.43;;;6.40;;
3993;SDS011;2011;48.238;13.948;2023-07-24T12:50:39;17.53;;;7.30;;
3993;SDS011;2011;48.238;13.948;2023-07-24T12:53:07;12.50;;;7.17;;
3993;SDS011;2011;48.238;13.948;2023-07-24T12:55:34;15.43;;;7.80;;
3993;SDS011;2011;48.238;13.948;2023-07-24T12:58:02;12.17;;;7.20;;
3993;SDS011;2011;48.238;13.948;2023-07-24T13:00:29;13.23;;;7.80;;
3993;SDS011;2011;48.238;13.948;2023-07-24T13:02:58;11.90;;;7.53;;
3993;SDS011;2011;48.238;13.948;2023-07-24T13:05:26;10.90;;;6.10;;
3993;SDS011;2011;48.238;13.948;2023-07-24T13:07:53;16.10;;;7.43;;
3993;SDS011;2011;48.238;13.948;2023-07-24T13:10:21;13.47;;;6.83;;
3993;SDS011;2011;48.238;13.948;2023-07-24T13:12:48;30.00;;;7.63;;
3993;SDS011;2011;48.238;13.948;2023-07-24T13:15:16;13.07;;;7.30;;
3993;SDS011;2011;48.238;13.948;2023-07-24T13:17:43;12.53;;;6.83;;
3993;SDS011;2011;48.238;13.948;2023-07-24T13:20:12;12.37;;;5.70;;
3993;SDS011;2011;48.238;13.948;2023-07-24T13:22:40;10.67;;;6.23;;
3993;SDS011;2011;48.238;13.948;2023-07-24T13:25:11;13.00;;;7.00;;
3993;SDS011;2011;48.238;13.948;2023-07-24T13:27:39;14.10;;;6.60;;
3993;SDS011;2011;48.238;13.948;2023-07-24T13:30:07;12.10;;;7.30;;
3993;SDS011;2011;48.238;13.948;2023-07-24T13:32:34;12.33;;;6.73;;
3993;SDS011;2011;48.238;13.948;2023-07-24T13:35:02;12.47;;;6.70;;
3993;SDS011;2011;48.238;13.948;2023-07-24T13:37:31;17.33;;;6.30;;
3993;SDS011;2011;48.238;13.948;2023-07-24T13:39:59;18.97;;;7.13;;
3993;SDS011;2011;48.238;13.948;2023-07-24T13:42:26;10.20;;;6.40;;
3993;SDS011;2011;48.238;13.948;2023-07-24T13:44:53;13.47;;;7.57;;
3993;SDS011;2011;48.238;13.948;2023-07-24T13:47:21;11.80;;;6.60;;
3993;SDS011;2011;48.238;13.948;2023-07-24T13:49:49;11.70;;;6.73;;
3993;SDS011;2011;48.238;13.948;2023-07-24T13:52:16;12.43;;;6.87;;
3993;SDS011;2011;48.238;13.948;2023-07-24T13:54:45;10.37;;;6.20;;
3993;SDS011;2011;48.238;13.948;2023-07-24T13:57:13;9.40;;;6.03;;
3993;SDS011;2011;48.238;13.948;2023-07-24T13:59:40;11.50;;;7.03;;
3993;SDS011;2011;48.238;13.948;2023-07-24T14:02:08;11.93;;;6.80;;
3993;SDS011;2011;48.238;13.948;2023-07-24T14:04:37;10.90;;;7.07;;
3993;SDS011;2011;48.238;13.948;2023-07-24T14:07:05;17.30;;;6.53;;
3993;SDS011;2011;48.238;13.948;2023-07-24T14:09:33;10.73;;;6.30;;
3993;SDS011;2011;48.238;13.948;2023-07-24T14:12:02;13.30;;;7.40;;
3993;SDS011;2011;48.238;13.948;2023-07-24T14:14:30;28.10;;;7.10;;
3993;SDS011;2011;48.238;13.948;2023-07-24T14:16:58;12.13;;;6.83;;
3993;SDS011;2011;48.238;13.948;2023-07-24T14:19:25;11.27;;;6.90;;
3993;SDS011;2011;48.238;13.948;2023-07-24T14:21:53;11.93;;;6.93;;
3993;SDS011;2011;48.238;13.948;2023-07-24T14:24:20;16.97;;;7.57;;
3993;SDS011;2011;48.238;13.948;2023-07-24T14:26:48;11.30;;;6.70;;
3993;SDS011;2011;48.238;13.948;2023-07-24T14:29:17;14.77;;;7.67;;
3993;SDS011;2011;48.238;13.948;2023-07-24T14:31:44;13.70;;;7.30;;
3993;SDS011;2011;48.238;13.948;2023-07-24T14:34:11;14.23;;;6.77;;
3993;SDS011;2011;48.238;13.948;2023-07-24T14:36:39;11.90;;;7.33;;
3993;SDS011;2011;48.238;13.948;2023-07-24T14:39:06;17.90;;;7.70;;
3993;SDS011;2011;48.238;13.948;2023-07-24T14:41:34;23.77;;;7.27;;
3993;SDS011;2011;48.238;13.948;2023-07-24T14:44:01;12.23;;;7.13;;
3993;SDS011;2011;48.238;13.948;2023-07-24T14:46:30;12.87;;;7.63;;
3993;SDS011;2011;48.238;13.948;2023-07-24T14:48:58;11.97;;;7.27;;
3993;SDS011;2011;48.238;13.948;2023-07-24T14:51:25;22.13;;;7.37;;
3993;SDS011;2011;48.238;13.948;2023-07-24T14:53:53;12.63;;;7.00;;